Latest Coastal Weather Observations for Merimbula

IDN60701

Issued at 7:01 am EST Sunday 23 July 2017 (issued every 10 minutes, with the page automatically refreshed every 10 minutes)

About coastal observations | Map of coastal stations | Coastal observations for NSW | Marine services | Other Formats
Station Details ID: 069147 Name: MERIMBULA AIRPORT AWS Lat: -36.91 Lon: 149.90 Height: 1.5 m
Data from the previous 72 hours. | See also: Recent months at Merimbula
Date/Time
EST
Temp
°C
Wind Pressure Rain since
9am
mm
Weather Cloud Vis
km
Sea
Height
m
Swell
Dir  Spd
kts
Gust
kts
hPa Trend Height
m
Period
s
Dir
23/07:00am 5.2 W 1 5 1012.6 - 0.0 - - 10 - - - -
23/06:30am 5.2 S 5 8 1012.4 - 0.0 - - 10 - - - -
23/06:00am 4.8 SSW 3 7 1012.5 - 0.0 - Mostly cloudy 10 - - - -
23/05:30am 5.5 SSW 5 6 1012.7 - 0.0 - - 10 - - - -
23/05:00am 6.1 SSW 1 7 1012.4 - 0.0 - - 10 - - - -
23/04:30am 6.1 CALM 0 0 1012.3 - 0.0 - - 10 - - - -
23/04:00am 6.1 SW 5 5 1012.4 - 0.0 - - 10 - - - -
23/03:30am 6.5 CALM 0 0 1012.3 - 0.0 - - 10 - - - -
23/03:00am 6.3 CALM 0 0 1012.3 - 0.0 - Cloudy 10 - - - -
23/02:30am 6.2 CALM 0 0 1012.6 - 0.0 - Cloudy 10 - - - -
23/02:00am 6.3 CALM 0 0 1012.9 - 0.0 - Cloudy 10 - - - -
23/01:30am 6.7 CALM 0 0 1013.1 - 0.0 - Cloudy 10 - - - -
23/01:00am 6.3 CALM 0 0 1013.3 - 0.0 - Cloudy 10 - - - -
23/12:30am 6.4 CALM 0 0 1013.8 - 0.0 - Cloudy 10 - - - -
23/12:00am 6.1 CALM 0 0 1014.2 - 0.0 - Cloudy 10 - - - -
 
Date/Time
EST
Temp
°C
Wind Pressure Rain since
9am
mm
Weather Cloud Vis
km
Sea
Height
m
Swell
Dir  Spd
kts
Gust
kts
hPa Trend Height
m
Period
s
Dir
22/11:30pm 5.8 SW 3 5 1014.5 - 0.0 - - 10 - - - -
22/11:00pm 5.5 WNW 2 5 1014.8 - 0.0 - - 10 - - - -
22/10:30pm 5.4 CALM 0 0 1015.2 - 0.0 - - 10 - - - -
22/10:00pm 5.5 NW 5 6 1015.3 - 0.0 - - 10 - - - -
22/09:30pm 4.5 WNW 4 5 1015.5 - 0.0 - - 10 - - - -
22/09:00pm 5.0 SW 3 5 1015.8 - 0.0 - Mostly clear 10 - - - -
22/08:30pm 5.2 W 3 5 1016.0 - 0.0 - - 9 - - - -
22/08:00pm 4.6 WSW 1 3 1015.8 - 0.0 - - 10 - - - -
22/07:30pm 5.0 CALM 0 0 1015.8 - 0.0 - - 10 - - - -
22/07:00pm 5.5 W 1 3 1016.0 - 0.0 - - 8 - - - -
22/06:30pm 6.9 WSW 1 6 1016.1 - 0.0 - - 6 - - - -
22/06:00pm 8.1 NW 5 7 1016.0 - 0.0 - Partly cloudy 10 - - - -
22/05:30pm 9.2 W 1 3 1015.8 - 0.0 - - 6 - - - -
22/05:20pm 10.6 N 3 4 1015.8 - 0.0 - - 6 - - - -
22/05:00pm 11.9 NE 3 5 1015.6 - 0.0 - - 4 - - - -
22/04:53pm 12.0 CALM 0 4 1015.5 - 0.0 - - 5 - - - -
22/04:30pm 14.0 CALM 0 3 1015.5 - 0.0 - - 10 - - - -
22/04:00pm 14.4 NE 4 6 1015.4 - 0.0 - - 10 - - - -
22/03:30pm 15.8 NNE 4 8 1015.3 - 0.0 - - 10 - - - -
22/03:00pm 14.8 NNE 6 10 1015.6 - 0.0 - - 10 - - - -
22/02:30pm 15.9 NE 7 11 1016.0 - 0.0 - - 10 - - - -
22/02:00pm 14.9 NE 6 8 1016.5 - 0.0 - - 10 - - - -
22/01:30pm 14.7 NNE 7 11 1017.0 - 0.0 - - 10 - - - -
22/01:00pm 15.9 ENE 7 10 1017.5 - 0.0 - - 10 - - - -
22/12:30pm 16.1 N 3 7 1018.3 - 0.0 - - 10 - - - -
22/12:00pm 15.7 CALM 0 3 1019.0 - 0.0 - - 10 - - - -
22/11:30am 14.6 NNW 4 7 1019.6 - 0.0 - - 10 - - - -
22/11:00am 13.4 NW 5 7 1020.3 - 0.0 - - 10 - - - -
22/10:30am 12.9 NNW 5 8 1020.6 - 0.0 - - 10 - - - -
22/10:00am 10.7 NNW 4 5 1021.0 - 0.0 - - 10 - - - -
22/09:30am 9.0 NW 4 5 1021.0 - 0.0 - - 10 - - - -
22/09:00am 6.8 NW 5 7 1021.2 - 0.2 Recent precip. - 10 - - - -
22/08:30am 5.1 NW 5 7 1021.2 - 0.2 - - 10 - - - -
22/08:00am 3.1 NNW 6 8 1021.1 - 0.0 - - 10 - - - -
22/07:30am 2.5 NW 7 9 1021.7 - 0.0 - - 10 - - - -
22/07:00am 1.8 WNW 5 7 1021.7 - 0.0 - - 10 - - - -
22/06:30am 1.8 NW 5 8 1021.4 - 0.0 - - 10 - - - -
22/06:00am 0.3 WSW 3 5 1021.3 - 0.0 - - 10 - - - -
22/05:30am 1.3 W 4 6 1021.0 - 0.0 - - 10 - - - -
22/05:00am 0.7 WSW 4 5 1021.1 - 0.0 - - 10 - - - -
22/04:30am 0.4 W 3 4 1020.8 - 0.0 - - 10 - - - -
22/04:00am 1.1 SW 4 5 1021.1 - 0.0 - - 10 - - - -
22/03:30am 2.6 NW 6 7 1021.4 - 0.0 - - 10 - - - -
22/03:00am 1.0 WSW 3 4 1021.6 - 0.0 - - 10 - - - -
22/02:30am 0.9 CALM 0 0 1021.9 - 0.0 - - 10 - - - -
22/02:00am 1.3 CALM 0 0 1022.0 - 0.0 - - 10 - - - -
22/01:30am 1.8 WSW 3 4 1022.3 - 0.0 - - 10 - - - -
22/01:00am 1.7 WSW 3 4 1022.6 - 0.0 - - 10 - - - -
22/12:30am 2.3 SW 3 4 1022.8 - 0.0 - - 10 - - - -
22/12:00am 2.4 SW 4 5 1023.0 - 0.0 - - 10 - - - -
 
Date/Time
EST
Temp
°C
Wind Pressure Rain since
9am
mm
Weather Cloud Vis
km
Sea
Height
m
Swell
Dir  Spd
kts
Gust
kts
hPa Trend Height
m
Period
s
Dir
21/11:30pm 2.9 WSW 3 5 1023.4 - 0.0 - - 10 - - - -
21/11:00pm 3.5 SW 4 5 1023.5 - 0.0 - - 10 - - - -
21/10:30pm 4.5 NW 6 7 1023.4 - 0.0 - - 10 - - - -
21/10:00pm 4.2 W 3 6 1023.4 - 0.0 - - 10 - - - -
21/09:30pm 5.3 NW 5 6 1023.5 - 0.0 - - 10 - - - -
21/09:00pm 4.3 WNW 4 5 1023.4 - 0.0 - - 10 - - - -
21/08:30pm 5.0 SSW 4 5 1023.2 - 0.0 - - 10 - - - -
21/08:00pm 5.6 SW 4 6 1023.1 - 0.0 - - 10 - - - -
21/07:30pm 7.0 WNW 4 6 1023.1 - 0.0 - - 10 - - - -
21/07:00pm 7.3 NW 5 6 1022.9 - 0.0 - - 10 - - - -
21/06:30pm 8.1 NW 3 8 1022.6 - 0.0 - - 10 - - - -
21/06:00pm 7.9 WNW 2 5 1022.4 - 0.0 - - 10 - - - -
21/05:30pm 9.9 S 5 6 1022.1 - 0.0 - - 10 - - - -
21/05:00pm 11.9 SW 4 6 1021.8 - 0.0 - - 10 - - - -
21/04:30pm 13.7 WSW 7 12 1021.8 - 0.0 - - 10 - - - -
21/04:00pm 14.8 WSW 7 11 1021.7 - 0.0 - Partly cloudy 10 - - - -
21/03:30pm 14.7 WSW 10 15 1021.6 - 0.0 - Partly cloudy 10 - - - -
21/03:00pm 15.8 SW 7 11 1021.2 - 0.0 - Mostly clear 10 - - - -
21/02:30pm 15.6 WSW 8 13 1021.0 - 0.0 - - 10 - - - -
21/02:00pm 15.4 WSW 11 14 1021.1 - 0.0 - Partly cloudy 10 - - - -
21/01:30pm 15.3 WSW 10 15 1021.0 - 0.0 - Partly cloudy 10 - - - -
21/01:00pm 15.5 SW 9 13 1021.2 - 0.0 - Partly cloudy 10 - - - -
21/12:30pm 15.5 SW 9 15 1021.5 - 0.0 - Partly cloudy 10 - - - -
21/12:00pm 15.1 WSW 10 19 1021.6 - 0.0 - Mostly clear 10 - - - -
21/11:30am 14.5 WSW 9 15 1021.9 - 0.0 - Partly cloudy 10 - - - -
21/11:00am 14.7 SW 10 19 1022.2 - 0.0 - Partly cloudy 10 - - - -
21/10:30am 13.7 SW 7 14 1022.2 - 0.0 - Partly cloudy 10 - - - -
21/10:00am 12.6 SW 7 12 1022.2 - 0.0 - Partly cloudy 10 - - - -
21/09:30am 12.2 SW 8 15 1022.1 - 0.0 - Partly cloudy 10 - - - -
21/09:00am 12.1 WSW 10 15 1021.7 - 0.2 - - 10 - - - -
21/08:30am 11.1 WSW 8 13 1021.4 - 0.2 - Partly cloudy 10 - - - -
21/08:00am 9.7 WSW 6 9 1021.3 - 0.2 - Cloudy 10 - - - -
21/07:30am 8.0 W 6 7 1020.8 - 0.2 - Partly cloudy 10 - - - -
21/07:00am 8.1 WSW 8 11 1020.5 - 0.2 - - 10 - - - -
21/06:30am 7.6 W 8 11 1020.2 - 0.2 - - 10 - - - -
21/06:00am 7.3 W 7 9 1020.2 - 0.2 - - 10 - - - -
21/05:30am 7.5 W 6 8 1019.7 - 0.2 - - 10 - - - -
21/05:00am 7.3 WNW 7 11 1019.5 - 0.2 - - 10 - - - -
21/04:30am 7.0 W 6 7 1019.2 - 0.2 - - 10 - - - -
21/04:00am 7.1 W 6 8 1018.9 - 0.2 - - 10 - - - -
21/03:30am 7.9 W 6 9 1018.7 - 0.2 - - 10 - - - -
21/03:00am 8.4 WSW 6 9 1018.6 - 0.2 - - 10 - - - -
21/02:30am 8.6 WSW 7 10 1018.5 - 0.2 - - 10 - - - -
21/02:00am 8.9 WSW 9 12 1018.5 - 0.2 - - 10 - - - -
21/01:30am 9.3 WSW 9 17 1018.2 - 0.2 - - 10 - - - -
21/01:00am 9.3 WSW 11 15 1017.9 - 0.2 - - 10 - - - -
21/12:30am 9.1 WSW 10 17 1017.8 - 0.2 - - 10 - - - -
21/12:00am 9.2 WSW 11 16 1017.7 - 0.2 - Mostly clear 10 - - - -
 
Date/Time
EST
Temp
°C
Wind Pressure Rain since
9am
mm
Weather Cloud Vis
km
Sea
Height
m
Swell
Dir  Spd
kts
Gust
kts
hPa Trend Height
m
Period
s
Dir
20/11:30pm 9.4 WSW 10 17 1017.8 - 0.2 - Partly cloudy 10 - - - -
20/11:00pm 9.1 SW 9 15 1017.5 - 0.2 - - 10 - - - -
20/10:30pm 9.1 SW 9 16 1017.1 - 0.2 - - 10 - - - -
20/10:00pm 9.3 SW 12 22 1016.9 - 0.2 - - 10 - - - -
20/09:30pm 9.2 WSW 10 17 1016.4 - 0.2 - - 10 - - - -
20/09:00pm 9.4 SW 9 18 1016.3 - 0.2 - - 10 - - - -
20/08:30pm 9.5 WSW 13 22 1015.4 - 0.2 - - 10 - - - -
20/08:14pm 9.4 WSW 15 25 1015.3 - 0.2 - - 10 - - - -
20/08:00pm 9.3 WSW 12 19 1015.6 - 0.2 - Partly cloudy 10 - - - -
20/07:30pm 9.0 SW 7 11 1016.1 - 0.2 - Partly cloudy 10 - - - -
20/07:00pm 8.9 SW 4 10 1015.8 - 0.2 - Partly cloudy 10 - - - -
20/06:30pm 8.7 W 10 17 1014.7 - 0.2 - - 10 - - - -
20/06:00pm 9.1 WSW 14 20 1014.0 - 0.2 - - 10 - - - -
20/05:30pm 9.1 WSW 12 23 1014.1 - 0.2 - Partly cloudy 10 - - - -
20/05:00pm 9.5 SW 7 15 1013.8 - 0.2 - Partly cloudy 10 - - - -
20/04:30pm 10.6 SW 11 21 1013.5 - 0.2 - - 10 - - - -
20/04:00pm 11.1 SW 10 16 1012.8 - 0.2 - - 10 - - - -
20/03:30pm 11.4 WSW 12 19 1012.7 - 0.2 - Partly cloudy 10 - - - -
20/03:00pm 10.4 WSW 15 25 1012.2 - 0.2 - Mostly clear 10 - - - -
20/02:49pm 10.7 WSW 16 27 1012.0 - 0.2 - - 10 - - - -
20/02:30pm 10.2 W 13 21 1011.9 - 0.2 - Partly cloudy 10 - - - -
20/02:03pm 8.3 WSW 15 28 1012.0 - 0.2 - Partly cloudy 10 - - - -
20/02:00pm 8.2 WSW 16 27 1012.0 - 0.2 - Partly cloudy 10 - - - -
20/01:48pm 9.4 SSW 15 30 1011.9 - 0.0 - Partly cloudy 10 - - - -
20/01:30pm 9.5 S 11 18 1011.1 - 0.0 - Partly cloudy 10 - - - -
20/01:00pm 13.2 SW 14 25 1010.5 - 0.0 - Partly cloudy 10 - - - -
20/12:30pm 14.0 WSW 12 20 1010.1 - 0.0 - Partly cloudy 10 - - - -
20/12:00pm 13.8 WSW 11 21 1010.2 - 0.0 - Mostly clear 10 - - - -
20/11:30am 13.8 SW 11 18 1010.6 - 0.0 - Partly cloudy 10 - - - -
20/11:00am 12.9 SW 12 22 1011.0 - 0.0 - Partly cloudy 10 - - - -
20/10:30am 12.6 WSW 10 21 1011.1 - 0.0 - Partly cloudy 10 - - - -
20/10:00am 13.3 WSW 10 16 1010.7 - 0.0 - Partly cloudy 10 - - - -
20/09:30am 13.0 WSW 11 19 1010.8 - 0.0 - Partly cloudy 10 - - - -
20/09:00am 12.6 W 9 18 1010.7 - 0.6 - Mostly clear 10 - - - -
20/08:30am 11.9 WSW 11 19 1010.6 - 0.6 - Partly cloudy 10 - - - -
20/08:00am 10.3 W 6 8 1010.5 - 0.6 - - 10 - - - -
20/07:30am 9.7 WNW 6 9 1010.3 - 0.6 - - 10 - - - -

Other Formats:

Comma delimited format used in spreadsheet applications
http://www.bom.gov.au/fwo/IDN60701/IDN60701.95929.axf

JavaScript Object Notation format (JSON) in row-major order
http://www.bom.gov.au/fwo/IDN60701/IDN60701.95929.json